TWA338 KSTL-KORF
Flight info
| Callsign | TWA338 |
|---|---|
| Flight time | 1h 42m |
| Altitude | 37000 |
| Route | PLESS5 PLESS PXV IIU STEWS BKW DRAIK |
| Aircraft | B722/M-SDFHRWY/C |
Departure
| Time | 2026-04-25 19:24 |
|---|---|
| Airport | St. Louis Lambert International Airport (KSTL) |
Arrival
| Time | 2026-04-25 21:06 |
|---|---|
| Airport | Norfolk International Airport (KORF) |
| Time | Latitude | Longitude | Altitude | Speed | Heading |
|---|---|---|---|---|---|
| 2026-04-25 18:46 | 38.74180 | -90.36265 | 571 ft | 0 kts | 6° |
| 2026-04-25 19:08 | 38.74161 | -90.36268 | 571 ft | 4 kts | 6° |
| 2026-04-25 19:09 | 38.74099 | -90.36313 | 574 ft | 2 kts | 45° |
| 2026-04-25 19:09 | 38.74098 | -90.36314 | 574 ft | 0 kts | 45° |
| 2026-04-25 19:13 | 38.74106 | -90.36299 | 575 ft | 7 kts | 64° |
| 2026-04-25 19:13 | 38.74091 | -90.36224 | 572 ft | 10 kts | 120° |
| 2026-04-25 19:14 | 38.74053 | -90.36137 | 572 ft | 9 kts | 118° |
| 2026-04-25 19:14 | 38.74032 | -90.36091 | 576 ft | 10 kts | 122° |
| 2026-04-25 19:14 | 38.73976 | -90.35978 | 578 ft | 12 kts | 124° |
| 2026-04-25 19:14 | 38.73971 | -90.35901 | 579 ft | 9 kts | 38° |
| 2026-04-25 19:15 | 38.74028 | -90.35856 | 575 ft | 10 kts | 28° |
| 2026-04-25 19:15 | 38.74092 | -90.35816 | 583 ft | 11 kts | 10° |
| 2026-04-25 19:15 | 38.74162 | -90.35853 | 578 ft | 13 kts | 306° |
| 2026-04-25 19:15 | 38.74206 | -90.35944 | 576 ft | 11 kts | 306° |
| 2026-04-25 19:16 | 38.74256 | -90.36039 | 581 ft | 15 kts | 302° |
| 2026-04-25 19:16 | 38.74306 | -90.36142 | 577 ft | 7 kts | 304° |
| 2026-04-25 19:16 | 38.74307 | -90.36145 | 574 ft | 0 kts | 304° |
| 2026-04-25 19:17 | 38.74308 | -90.36146 | 575 ft | 1 kts | 304° |
| 2026-04-25 19:17 | 38.74343 | -90.36215 | 576 ft | 16 kts | 302° |
| 2026-04-25 19:18 | 38.74415 | -90.36359 | 571 ft | 22 kts | 303° |
| 2026-04-25 19:18 | 38.74507 | -90.36546 | 562 ft | 27 kts | 302° |
| 2026-04-25 19:18 | 38.74591 | -90.36718 | 564 ft | 14 kts | 300° |
| 2026-04-25 19:18 | 38.74648 | -90.36841 | 557 ft | 18 kts | 301° |
| 2026-04-25 19:19 | 38.74718 | -90.36986 | 565 ft | 20 kts | 301° |
| 2026-04-25 19:19 | 38.74798 | -90.37144 | 560 ft | 21 kts | 303° |
| 2026-04-25 19:19 | 38.74865 | -90.37291 | 561 ft | 18 kts | 292° |
| 2026-04-25 19:19 | 38.74896 | -90.37396 | 564 ft | 20 kts | 297° |
| 2026-04-25 19:20 | 38.75003 | -90.37606 | 564 ft | 18 kts | 301° |
| 2026-04-25 19:20 | 38.75067 | -90.37737 | 552 ft | 15 kts | 303° |
| 2026-04-25 19:20 | 38.75098 | -90.37798 | 555 ft | 0 kts | 301° |
| 2026-04-25 19:21 | 38.75106 | -90.37816 | 555 ft | 5 kts | 302° |
| 2026-04-25 19:21 | 38.75135 | -90.37877 | 551 ft | 11 kts | 301° |
| 2026-04-25 19:22 | 38.75181 | -90.37971 | 551 ft | 14 kts | 305° |
| 2026-04-25 19:22 | 38.75253 | -90.38010 | 550 ft | 13 kts | 27° |
| 2026-04-25 19:22 | 38.75363 | -90.37866 | 549 ft | 1 kts | 118° |
| 2026-04-25 19:23 | 38.75362 | -90.37866 | 557 ft | 0 kts | 118° |
| 2026-04-25 19:23 | 38.74995 | -90.37111 | 570 ft | 111 kts | 121° |
| 2026-04-25 19:23 | 38.74505 | -90.36151 | 792 ft | 137 kts | 124° |
| 2026-04-25 19:24 | 38.73946 | -90.35069 | 1220 ft | 152 kts | 121° |
| 2026-04-25 19:24 | 38.73340 | -90.33963 | 1915 ft | 154 kts | 128° |
| 2026-04-25 19:24 | 38.71805 | -90.31699 | 3060 ft | 185 kts | 130° |
| 2026-04-25 19:25 | 38.69913 | -90.28863 | 4225 ft | 236 kts | 127° |
| 2026-04-25 19:25 | 38.68836 | -90.27160 | 5174 ft | 249 kts | 126° |
| 2026-04-25 19:25 | 38.67783 | -90.25440 | 6425 ft | 252 kts | 127° |
| 2026-04-25 19:26 | 38.66598 | -90.23617 | 7035 ft | 277 kts | 128° |
| 2026-04-25 19:26 | 38.65329 | -90.21738 | 8168 ft | 280 kts | 129° |
| 2026-04-25 19:26 | 38.64055 | -90.19839 | 9365 ft | 282 kts | 129° |
| 2026-04-25 19:26 | 38.62783 | -90.17914 | 10500 ft | 284 kts | 129° |
| 2026-04-25 19:27 | 38.61515 | -90.15988 | 11618 ft | 283 kts | 129° |
| 2026-04-25 19:27 | 38.60674 | -90.14728 | 12374 ft | 281 kts | 131° |
| 2026-04-25 19:27 | 38.58984 | -90.12230 | 13950 ft | 273 kts | 130° |
| 2026-04-25 19:27 | 38.57778 | -90.10405 | 15017 ft | 264 kts | 131° |
| 2026-04-25 19:28 | 38.56572 | -90.08577 | 15678 ft | 275 kts | 131° |
| 2026-04-25 19:28 | 38.55333 | -90.06699 | 16273 ft | 286 kts | 131° |
| 2026-04-25 19:28 | 38.54023 | -90.04712 | 16694 ft | 302 kts | 131° |
| 2026-04-25 19:28 | 38.52622 | -90.02589 | 17031 ft | 321 kts | 131° |
| 2026-04-25 19:29 | 38.51145 | -90.00353 | 17375 ft | 338 kts | 131° |
| 2026-04-25 19:29 | 38.49586 | -89.97993 | 17723 ft | 356 kts | 131° |
| 2026-04-25 19:29 | 38.47956 | -89.95523 | 18063 ft | 372 kts | 130° |
| 2026-04-25 19:29 | 38.46277 | -89.92943 | 18382 ft | 388 kts | 130° |
| 2026-04-25 19:30 | 38.44515 | -89.90237 | 18676 ft | 403 kts | 130° |
| 2026-04-25 19:30 | 38.42688 | -89.87429 | 18963 ft | 417 kts | 129° |
| 2026-04-25 19:30 | 38.40868 | -89.84485 | 19263 ft | 429 kts | 129° |
| 2026-04-25 19:30 | 38.38957 | -89.81494 | 19563 ft | 441 kts | 130° |
| 2026-04-25 19:31 | 38.36986 | -89.78421 | 19867 ft | 452 kts | 130° |
| 2026-04-25 19:31 | 38.34986 | -89.75308 | 20171 ft | 462 kts | 130° |
| 2026-04-25 19:31 | 38.32912 | -89.72090 | 20525 ft | 470 kts | 130° |
| 2026-04-25 19:31 | 38.30827 | -89.68861 | 20872 ft | 477 kts | 130° |
| 2026-04-25 19:32 | 38.28701 | -89.65574 | 21299 ft | 482 kts | 130° |
| 2026-04-25 19:32 | 38.26565 | -89.62275 | 21741 ft | 485 kts | 130° |
| 2026-04-25 19:32 | 38.24411 | -89.58949 | 22188 ft | 488 kts | 130° |
| 2026-04-25 19:32 | 38.23709 | -89.57863 | 22346 ft | 489 kts | 130° |
| 2026-04-25 19:33 | 38.20075 | -89.52238 | 23107 ft | 493 kts | 130° |
| 2026-04-25 19:33 | 38.17905 | -89.48856 | 23554 ft | 493 kts | 130° |
| 2026-04-25 19:33 | 38.15759 | -89.45514 | 23942 ft | 482 kts | 130° |
| 2026-04-25 19:33 | 38.13670 | -89.42256 | 24330 ft | 469 kts | 130° |
| 2026-04-25 19:34 | 38.11615 | -89.39052 | 24721 ft | 467 kts | 130° |
| 2026-04-25 19:34 | 38.09560 | -89.35854 | 25116 ft | 468 kts | 130° |
| 2026-04-25 19:34 | 38.07531 | -89.32699 | 25511 ft | 470 kts | 130° |
| 2026-04-25 19:34 | 38.05457 | -89.29481 | 25923 ft | 471 kts | 131° |
| 2026-04-25 19:35 | 38.03377 | -89.26258 | 26340 ft | 471 kts | 131° |
| 2026-04-25 19:35 | 38.01300 | -89.23045 | 26775 ft | 471 kts | 131° |
| 2026-04-25 19:35 | 37.99221 | -89.19827 | 27203 ft | 471 kts | 131° |
| 2026-04-25 19:35 | 37.97136 | -89.16624 | 27644 ft | 471 kts | 131° |
| 2026-04-25 19:36 | 37.95051 | -89.13427 | 28078 ft | 471 kts | 131° |
| 2026-04-25 19:36 | 37.92963 | -89.10229 | 28529 ft | 472 kts | 131° |
| 2026-04-25 19:36 | 37.90875 | -89.07032 | 28985 ft | 472 kts | 131° |
| 2026-04-25 19:36 | 37.88789 | -89.03818 | 29454 ft | 473 kts | 131° |
| 2026-04-25 19:37 | 37.86692 | -89.00588 | 29914 ft | 474 kts | 131° |
| 2026-04-25 19:37 | 37.84602 | -88.97349 | 30262 ft | 476 kts | 131° |
| 2026-04-25 19:37 | 37.82509 | -88.94088 | 30604 ft | 478 kts | 131° |
| 2026-04-25 19:37 | 37.80647 | -88.90595 | 30919 ft | 483 kts | 117° |
| 2026-04-25 19:38 | 37.79704 | -88.86535 | 31273 ft | 485 kts | 96° |
| 2026-04-25 19:38 | 37.79808 | -88.82299 | 31616 ft | 482 kts | 77° |
| 2026-04-25 19:38 | 37.80663 | -88.78216 | 31964 ft | 480 kts | 71° |
| 2026-04-25 19:38 | 37.81582 | -88.74152 | 32319 ft | 481 kts | 73° |
| 2026-04-25 19:39 | 37.82393 | -88.70040 | 32664 ft | 483 kts | 75° |
| 2026-04-25 19:39 | 37.83089 | -88.65932 | 32922 ft | 486 kts | 77° |
| 2026-04-25 19:39 | 37.83690 | -88.61715 | 33161 ft | 489 kts | 78° |
| 2026-04-25 19:39 | 37.84258 | -88.57459 | 33404 ft | 492 kts | 79° |
| 2026-04-25 19:40 | 37.84810 | -88.53180 | 33649 ft | 494 kts | 79° |
| 2026-04-25 19:40 | 37.85338 | -88.48880 | 33890 ft | 496 kts | 79° |
| 2026-04-25 19:40 | 37.85838 | -88.44553 | 34117 ft | 498 kts | 81° |
| 2026-04-25 19:40 | 37.86309 | -88.40208 | 34328 ft | 499 kts | 81° |
| 2026-04-25 19:41 | 37.86776 | -88.35847 | 34538 ft | 501 kts | 81° |
| 2026-04-25 19:41 | 37.87235 | -88.31486 | 34763 ft | 501 kts | 81° |
| 2026-04-25 19:41 | 37.87689 | -88.27103 | 35002 ft | 502 kts | 81° |
| 2026-04-25 19:41 | 37.87843 | -88.25620 | 35088 ft | 502 kts | 81° |
| 2026-04-25 19:42 | 37.88589 | -88.18342 | 35485 ft | 502 kts | 81° |
| 2026-04-25 19:42 | 37.89041 | -88.13962 | 35729 ft | 502 kts | 81° |
| 2026-04-25 19:42 | 37.89491 | -88.09580 | 35976 ft | 502 kts | 81° |
| 2026-04-25 19:42 | 37.89937 | -88.05204 | 36225 ft | 501 kts | 82° |
| 2026-04-25 19:43 | 37.90374 | -88.00831 | 36473 ft | 500 kts | 81° |
| 2026-04-25 19:43 | 37.90845 | -87.96468 | 36737 ft | 500 kts | 81° |
| 2026-04-25 19:43 | 37.91250 | -87.92097 | 36934 ft | 501 kts | 84° |
| 2026-04-25 19:43 | 37.91684 | -87.87707 | 36935 ft | 505 kts | 80° |
| 2026-04-25 19:44 | 37.92514 | -87.78787 | 36947 ft | 515 kts | 84° |
| 2026-04-25 19:44 | 37.92249 | -87.69771 | 36943 ft | 517 kts | 110° |
| 2026-04-25 19:45 | 37.90690 | -87.65776 | 36954 ft | 512 kts | 129° |
| 2026-04-25 19:45 | 37.88251 | -87.62454 | 36963 ft | 508 kts | 140° |
| 2026-04-25 19:45 | 37.85918 | -87.59169 | 36958 ft | 514 kts | 126° |
| 2026-04-25 19:45 | 37.84403 | -87.55086 | 36956 ft | 517 kts | 106° |
| 2026-04-25 19:46 | 37.83974 | -87.50576 | 36949 ft | 515 kts | 86° |
| 2026-04-25 19:46 | 37.84682 | -87.46186 | 36951 ft | 509 kts | 66° |
| 2026-04-25 19:46 | 37.86404 | -87.42333 | 36951 ft | 500 kts | 50° |
| 2026-04-25 19:46 | 37.88624 | -87.38985 | 36941 ft | 493 kts | 44° |
| 2026-04-25 19:47 | 37.92220 | -87.33431 | 36938 ft | 490 kts | 52° |
| 2026-04-25 19:47 | 37.95927 | -87.24571 | 36925 ft | 486 kts | 68° |
| 2026-04-25 19:48 | 37.97473 | -87.17771 | 36924 ft | 482 kts | 77° |
| 2026-04-25 19:48 | 37.98604 | -87.09428 | 36932 ft | 478 kts | 81° |
| 2026-04-25 19:49 | 37.99368 | -87.02490 | 36930 ft | 480 kts | 83° |
| 2026-04-25 19:49 | 38.00226 | -86.92643 | 36942 ft | 481 kts | 81° |
| 2026-04-25 19:50 | 38.01312 | -86.79961 | 36942 ft | 483 kts | 82° |
| 2026-04-25 19:51 | 38.01932 | -86.71465 | 36932 ft | 485 kts | 82° |
| 2026-04-25 19:51 | 38.02654 | -86.62965 | 36924 ft | 486 kts | 85° |
| 2026-04-25 19:52 | 38.03427 | -86.54447 | 36921 ft | 487 kts | 85° |
| 2026-04-25 19:52 | 38.04046 | -86.45913 | 36921 ft | 487 kts | 82° |
| 2026-04-25 19:53 | 38.04710 | -86.37359 | 36928 ft | 488 kts | 84° |
| 2026-04-25 19:53 | 38.05495 | -86.28785 | 36920 ft | 488 kts | 86° |
| 2026-04-25 19:54 | 38.06086 | -86.20197 | 36928 ft | 489 kts | 83° |
| 2026-04-25 19:54 | 38.06783 | -86.11609 | 36922 ft | 490 kts | 85° |
| 2026-04-25 19:55 | 38.07423 | -86.02988 | 36934 ft | 491 kts | 84° |
| 2026-04-25 19:55 | 38.08098 | -85.94367 | 36938 ft | 492 kts | 85° |
| 2026-04-25 19:56 | 38.08748 | -85.85780 | 36938 ft | 492 kts | 84° |
| 2026-04-25 19:56 | 38.09420 | -85.77131 | 36942 ft | 493 kts | 84° |
| 2026-04-25 19:57 | 38.10055 | -85.68456 | 36944 ft | 494 kts | 85° |
| 2026-04-25 19:57 | 38.10699 | -85.59775 | 36940 ft | 494 kts | 85° |
| 2026-04-25 19:58 | 38.10684 | -85.51079 | 36938 ft | 493 kts | 98° |
| 2026-04-25 19:58 | 38.09864 | -85.42438 | 36901 ft | 493 kts | 97° |
| 2026-04-25 19:59 | 38.09218 | -85.33781 | 36914 ft | 493 kts | 96° |
| 2026-04-25 19:59 | 38.08572 | -85.25109 | 36920 ft | 493 kts | 97° |
| 2026-04-25 20:00 | 38.07909 | -85.16448 | 36928 ft | 494 kts | 97° |
| 2026-04-25 20:00 | 38.07244 | -85.07769 | 36932 ft | 494 kts | 97° |
| 2026-04-25 20:01 | 38.06247 | -84.94762 | 36942 ft | 493 kts | 98° |
| 2026-04-25 20:01 | 38.05559 | -84.86099 | 36926 ft | 494 kts | 97° |
| 2026-04-25 20:02 | 38.04863 | -84.77435 | 36938 ft | 494 kts | 97° |
| 2026-04-25 20:02 | 38.04168 | -84.68780 | 36943 ft | 494 kts | 98° |
| 2026-04-25 20:03 | 38.03473 | -84.60163 | 36936 ft | 494 kts | 98° |
| 2026-04-25 20:03 | 38.02782 | -84.51484 | 36933 ft | 494 kts | 98° |
| 2026-04-25 20:04 | 38.02051 | -84.42828 | 36935 ft | 494 kts | 98° |
| 2026-04-25 20:04 | 38.01325 | -84.34165 | 36924 ft | 494 kts | 98° |
| 2026-04-25 20:05 | 38.00597 | -84.25502 | 36921 ft | 494 kts | 99° |
| 2026-04-25 20:05 | 37.99861 | -84.16828 | 36926 ft | 494 kts | 99° |
| 2026-04-25 20:06 | 37.99115 | -84.08164 | 36935 ft | 495 kts | 99° |
| 2026-04-25 20:06 | 37.98383 | -83.99498 | 36938 ft | 495 kts | 99° |
| 2026-04-25 20:07 | 37.97651 | -83.90816 | 36920 ft | 495 kts | 99° |
| 2026-04-25 20:07 | 37.96885 | -83.82151 | 36927 ft | 495 kts | 100° |
| 2026-04-25 20:08 | 37.96127 | -83.73538 | 36892 ft | 496 kts | 100° |
| 2026-04-25 20:08 | 37.95373 | -83.64851 | 36897 ft | 496 kts | 100° |
| 2026-04-25 20:09 | 37.94583 | -83.56167 | 36896 ft | 496 kts | 101° |
| 2026-04-25 20:09 | 37.93774 | -83.47494 | 36887 ft | 496 kts | 101° |
| 2026-04-25 20:10 | 37.92980 | -83.38808 | 36893 ft | 497 kts | 101° |
| 2026-04-25 20:10 | 37.92192 | -83.30110 | 36904 ft | 497 kts | 102° |
| 2026-04-25 20:11 | 37.91355 | -83.21421 | 36901 ft | 497 kts | 101° |
| 2026-04-25 20:11 | 37.90511 | -83.12730 | 36897 ft | 497 kts | 102° |
| 2026-04-25 20:12 | 37.89666 | -83.04033 | 36894 ft | 499 kts | 102° |
| 2026-04-25 20:12 | 37.89113 | -82.98256 | 36897 ft | 500 kts | 102° |
| 2026-04-25 20:13 | 37.88152 | -82.91043 | 36913 ft | 488 kts | 116° |
| 2026-04-25 20:13 | 37.86577 | -82.87389 | 36927 ft | 468 kts | 136° |
| 2026-04-25 20:13 | 37.84245 | -82.84766 | 36934 ft | 446 kts | 157° |
| 2026-04-25 20:13 | 37.81428 | -82.83367 | 36969 ft | 428 kts | 173° |
| 2026-04-25 20:14 | 37.75972 | -82.80161 | 36953 ft | 457 kts | 142° |
| 2026-04-25 20:14 | 37.74077 | -82.76853 | 36951 ft | 477 kts | 122° |
| 2026-04-25 20:14 | 37.73137 | -82.72782 | 36957 ft | 495 kts | 101° |
| 2026-04-25 20:15 | 37.73293 | -82.68395 | 36954 ft | 507 kts | 80° |
| 2026-04-25 20:15 | 37.74563 | -82.64226 | 36958 ft | 513 kts | 59° |
| 2026-04-25 20:15 | 37.78986 | -82.57151 | 36952 ft | 515 kts | 50° |
| 2026-04-25 20:16 | 37.82935 | -82.49608 | 36900 ft | 515 kts | 65° |
| 2026-04-25 20:16 | 37.85260 | -82.41100 | 36900 ft | 511 kts | 82° |
| 2026-04-25 20:17 | 37.85926 | -82.32209 | 36902 ft | 506 kts | 93° |
| 2026-04-25 20:17 | 37.85640 | -82.23349 | 36903 ft | 504 kts | 99° |
| 2026-04-25 20:18 | 37.85129 | -82.14490 | 36900 ft | 506 kts | 99° |
| 2026-04-25 20:18 | 37.84635 | -82.05598 | 36902 ft | 507 kts | 99° |
| 2026-04-25 20:19 | 37.84167 | -81.96744 | 36901 ft | 508 kts | 99° |
| 2026-04-25 20:19 | 37.83698 | -81.87812 | 36902 ft | 509 kts | 99° |
| 2026-04-25 20:20 | 37.83226 | -81.78855 | 36903 ft | 511 kts | 99° |
| 2026-04-25 20:20 | 37.82731 | -81.69883 | 36897 ft | 511 kts | 99° |
| 2026-04-25 20:21 | 37.82236 | -81.60909 | 36888 ft | 511 kts | 98° |
| 2026-04-25 20:21 | 37.81755 | -81.51930 | 36905 ft | 512 kts | 99° |
| 2026-04-25 20:22 | 37.81430 | -81.45979 | 36919 ft | 513 kts | 99° |
| 2026-04-25 20:22 | 37.80787 | -81.33912 | 36942 ft | 515 kts | 98° |
| 2026-04-25 20:23 | 37.80310 | -81.24936 | 36947 ft | 516 kts | 98° |
| 2026-04-25 20:23 | 37.79803 | -81.15882 | 36951 ft | 517 kts | 98° |
| 2026-04-25 20:24 | 37.78454 | -81.07085 | 36956 ft | 503 kts | 116° |
| 2026-04-25 20:24 | 37.75878 | -80.98882 | 36955 ft | 503 kts | 118° |
| 2026-04-25 20:25 | 37.73310 | -80.90637 | 36926 ft | 506 kts | 117° |
| 2026-04-25 20:25 | 37.70818 | -80.82295 | 36910 ft | 509 kts | 116° |
| 2026-04-25 20:26 | 37.68343 | -80.73905 | 36904 ft | 511 kts | 116° |
| 2026-04-25 20:26 | 37.65857 | -80.65494 | 36894 ft | 512 kts | 116° |
| 2026-04-25 20:27 | 37.63357 | -80.57073 | 36913 ft | 513 kts | 116° |
| 2026-04-25 20:27 | 37.60849 | -80.48647 | 36906 ft | 514 kts | 116° |
| 2026-04-25 20:28 | 37.58355 | -80.40255 | 36904 ft | 515 kts | 116° |
| 2026-04-25 20:28 | 37.55844 | -80.31796 | 36896 ft | 516 kts | 116° |
| 2026-04-25 20:29 | 37.53344 | -80.23336 | 36893 ft | 515 kts | 115° |
| 2026-04-25 20:29 | 37.50807 | -80.14892 | 36891 ft | 515 kts | 115° |
| 2026-04-25 20:30 | 37.48239 | -80.06466 | 36906 ft | 516 kts | 115° |
| 2026-04-25 20:30 | 37.45672 | -79.98020 | 36912 ft | 517 kts | 115° |
| 2026-04-25 20:31 | 37.43110 | -79.89556 | 36917 ft | 518 kts | 115° |
| 2026-04-25 20:31 | 37.40545 | -79.81077 | 36909 ft | 519 kts | 115° |
| 2026-04-25 20:32 | 37.38000 | -79.72655 | 36896 ft | 519 kts | 115° |
| 2026-04-25 20:32 | 37.35437 | -79.64166 | 36848 ft | 520 kts | 115° |
| 2026-04-25 20:33 | 37.32868 | -79.55656 | 36863 ft | 522 kts | 115° |
| 2026-04-25 20:33 | 37.31099 | -79.49981 | 36877 ft | 522 kts | 115° |
| 2026-04-25 20:34 | 37.27592 | -79.38670 | 36882 ft | 522 kts | 115° |
| 2026-04-25 20:34 | 37.24933 | -79.30197 | 36832 ft | 522 kts | 115° |
| 2026-04-25 20:35 | 37.22285 | -79.21713 | 36800 ft | 522 kts | 114° |
| 2026-04-25 20:35 | 37.19670 | -79.13236 | 36832 ft | 519 kts | 114° |
| 2026-04-25 20:36 | 37.17051 | -79.04825 | 36822 ft | 516 kts | 114° |
| 2026-04-25 20:36 | 37.14740 | -78.96343 | 36819 ft | 515 kts | 104° |
| 2026-04-25 20:37 | 37.13967 | -78.87394 | 36314 ft | 522 kts | 89° |
| 2026-04-25 20:37 | 37.13900 | -78.82854 | 35858 ft | 521 kts | 94° |
| 2026-04-25 20:37 | 37.13676 | -78.78342 | 35368 ft | 516 kts | 96° |
| 2026-04-25 20:38 | 37.13320 | -78.73916 | 34883 ft | 508 kts | 97° |
| 2026-04-25 20:38 | 37.12986 | -78.69536 | 34403 ft | 501 kts | 97° |
| 2026-04-25 20:38 | 37.12662 | -78.65205 | 33866 ft | 496 kts | 96° |
| 2026-04-25 20:38 | 37.12342 | -78.60917 | 33202 ft | 492 kts | 97° |
| 2026-04-25 20:39 | 37.12014 | -78.56699 | 32552 ft | 496 kts | 97° |
| 2026-04-25 20:39 | 37.11678 | -78.52383 | 31919 ft | 500 kts | 97° |
| 2026-04-25 20:39 | 37.11347 | -78.48035 | 31302 ft | 503 kts | 97° |
| 2026-04-25 20:39 | 37.11229 | -78.46559 | 31099 ft | 504 kts | 97° |
| 2026-04-25 20:40 | 37.10665 | -78.39266 | 30104 ft | 507 kts | 97° |
| 2026-04-25 20:40 | 37.10321 | -78.34869 | 29454 ft | 508 kts | 97° |
| 2026-04-25 20:40 | 37.09976 | -78.30465 | 28737 ft | 506 kts | 97° |
| 2026-04-25 20:40 | 37.09638 | -78.26131 | 28027 ft | 496 kts | 97° |
| 2026-04-25 20:41 | 37.09308 | -78.21865 | 27327 ft | 487 kts | 97° |
| 2026-04-25 20:41 | 37.08988 | -78.17685 | 26648 ft | 479 kts | 97° |
| 2026-04-25 20:41 | 37.08672 | -78.13558 | 25975 ft | 471 kts | 97° |
| 2026-04-25 20:41 | 37.08330 | -78.09515 | 25324 ft | 463 kts | 97° |
| 2026-04-25 20:42 | 37.07990 | -78.05535 | 24687 ft | 456 kts | 97° |
| 2026-04-25 20:42 | 37.07658 | -78.01616 | 24068 ft | 449 kts | 97° |
| 2026-04-25 20:42 | 37.07333 | -77.97752 | 23460 ft | 443 kts | 97° |
| 2026-04-25 20:42 | 37.07121 | -77.95226 | 22994 ft | 439 kts | 97° |
| 2026-04-25 20:43 | 37.06823 | -77.91436 | 22280 ft | 434 kts | 96° |
| 2026-04-25 20:43 | 37.06537 | -77.87702 | 21586 ft | 429 kts | 96° |
| 2026-04-25 20:43 | 37.06225 | -77.84010 | 20910 ft | 424 kts | 96° |
| 2026-04-25 20:43 | 37.05932 | -77.80361 | 20278 ft | 419 kts | 96° |
| 2026-04-25 20:44 | 37.05624 | -77.76750 | 19622 ft | 415 kts | 96° |
| 2026-04-25 20:44 | 37.05334 | -77.73182 | 18989 ft | 410 kts | 96° |
| 2026-04-25 20:44 | 37.05037 | -77.69650 | 18368 ft | 405 kts | 96° |
| 2026-04-25 20:44 | 37.04741 | -77.66178 | 17847 ft | 396 kts | 96° |
| 2026-04-25 20:45 | 37.04457 | -77.62789 | 17350 ft | 387 kts | 96° |
| 2026-04-25 20:45 | 37.04170 | -77.59477 | 16893 ft | 379 kts | 97° |
| 2026-04-25 20:45 | 37.03892 | -77.56233 | 16456 ft | 371 kts | 97° |
| 2026-04-25 20:45 | 37.03622 | -77.53055 | 16024 ft | 364 kts | 97° |
| 2026-04-25 20:46 | 37.03360 | -77.49934 | 15599 ft | 358 kts | 97° |
| 2026-04-25 20:46 | 37.03095 | -77.46868 | 15175 ft | 352 kts | 97° |
| 2026-04-25 20:46 | 37.02832 | -77.43843 | 14768 ft | 348 kts | 98° |
| 2026-04-25 20:46 | 37.02574 | -77.40846 | 14361 ft | 347 kts | 98° |
| 2026-04-25 20:47 | 37.02312 | -77.37812 | 13978 ft | 356 kts | 98° |
| 2026-04-25 20:47 | 37.02047 | -77.34727 | 13644 ft | 369 kts | 98° |
| 2026-04-25 20:47 | 37.01764 | -77.31482 | 13261 ft | 377 kts | 98° |
| 2026-04-25 20:47 | 37.01477 | -77.28236 | 12867 ft | 372 kts | 98° |
| 2026-04-25 20:48 | 37.01194 | -77.25049 | 12482 ft | 366 kts | 98° |
| 2026-04-25 20:48 | 37.00917 | -77.21905 | 12093 ft | 361 kts | 98° |
| 2026-04-25 20:48 | 37.00648 | -77.18812 | 11779 ft | 355 kts | 98° |
| 2026-04-25 20:48 | 37.00386 | -77.15763 | 11480 ft | 350 kts | 98° |
| 2026-04-25 20:49 | 37.00131 | -77.12757 | 11182 ft | 346 kts | 98° |
| 2026-04-25 20:49 | 36.99881 | -77.09784 | 10889 ft | 342 kts | 99° |
| 2026-04-25 20:49 | 36.99603 | -77.06844 | 10593 ft | 339 kts | 99° |
| 2026-04-25 20:49 | 36.99325 | -77.03930 | 10302 ft | 336 kts | 99° |
| 2026-04-25 20:50 | 36.99053 | -77.01035 | 10016 ft | 340 kts | 99° |
| 2026-04-25 20:50 | 36.98765 | -76.98041 | 9985 ft | 352 kts | 99° |
| 2026-04-25 20:50 | 36.98476 | -76.94953 | 9984 ft | 363 kts | 98° |
| 2026-04-25 20:50 | 36.98215 | -76.91822 | 9986 ft | 357 kts | 99° |
| 2026-04-25 20:51 | 36.97939 | -76.88783 | 9980 ft | 346 kts | 99° |
| 2026-04-25 20:51 | 36.97669 | -76.85834 | 9990 ft | 336 kts | 99° |
| 2026-04-25 20:51 | 36.97409 | -76.82978 | 9981 ft | 325 kts | 99° |
| 2026-04-25 20:51 | 36.97162 | -76.80246 | 9977 ft | 316 kts | 99° |
| 2026-04-25 20:52 | 36.96920 | -76.77549 | 9979 ft | 308 kts | 100° |
| 2026-04-25 20:52 | 36.96761 | -76.75770 | 9981 ft | 304 kts | 99° |
| 2026-04-25 20:52 | 36.96442 | -76.72300 | 9780 ft | 303 kts | 99° |
| 2026-04-25 20:52 | 36.96199 | -76.69680 | 9512 ft | 304 kts | 100° |
| 2026-04-25 20:53 | 36.95945 | -76.67039 | 9122 ft | 308 kts | 100° |
| 2026-04-25 20:53 | 36.95694 | -76.64373 | 8746 ft | 309 kts | 99° |
| 2026-04-25 20:53 | 36.95461 | -76.61700 | 8368 ft | 309 kts | 99° |
| 2026-04-25 20:53 | 36.95213 | -76.59034 | 7996 ft | 308 kts | 99° |
| 2026-04-25 20:54 | 36.94948 | -76.56393 | 7631 ft | 307 kts | 100° |
| 2026-04-25 20:54 | 36.94649 | -76.53732 | 7265 ft | 307 kts | 101° |
| 2026-04-25 20:54 | 36.94353 | -76.51097 | 6908 ft | 302 kts | 101° |
| 2026-04-25 20:54 | 36.94069 | -76.48556 | 6570 ft | 289 kts | 100° |
| 2026-04-25 20:55 | 36.93799 | -76.46110 | 6203 ft | 279 kts | 100° |
| 2026-04-25 20:55 | 36.93539 | -76.43740 | 5820 ft | 272 kts | 100° |
| 2026-04-25 20:55 | 36.93286 | -76.41424 | 5339 ft | 267 kts | 100° |
| 2026-04-25 20:55 | 36.93040 | -76.39150 | 5023 ft | 257 kts | 100° |
| 2026-04-25 20:56 | 36.92808 | -76.36970 | 4658 ft | 252 kts | 100° |
| 2026-04-25 20:56 | 36.92353 | -76.34899 | 4182 ft | 245 kts | 123° |
| 2026-04-25 20:56 | 36.91157 | -76.33542 | 3741 ft | 233 kts | 160° |
| 2026-04-25 20:56 | 36.89599 | -76.33405 | 3333 ft | 225 kts | 196° |
| 2026-04-25 20:57 | 36.88226 | -76.34212 | 3011 ft | 209 kts | 210° |
| 2026-04-25 20:57 | 36.87041 | -76.35130 | 2662 ft | 193 kts | 210° |
| 2026-04-25 20:57 | 36.85929 | -76.35981 | 2359 ft | 179 kts | 209° |
| 2026-04-25 20:57 | 36.84912 | -76.36807 | 2089 ft | 173 kts | 214° |
| 2026-04-25 20:58 | 36.84031 | -76.37794 | 1994 ft | 170 kts | 221° |
| 2026-04-25 20:58 | 36.83166 | -76.38810 | 1877 ft | 170 kts | 218° |
| 2026-04-25 20:58 | 36.82278 | -76.39737 | 1924 ft | 162 kts | 216° |
| 2026-04-25 20:58 | 36.81444 | -76.40641 | 1969 ft | 155 kts | 216° |
| 2026-04-25 20:59 | 36.80624 | -76.41542 | 1904 ft | 158 kts | 217° |
| 2026-04-25 20:59 | 36.79805 | -76.42461 | 2041 ft | 162 kts | 218° |
| 2026-04-25 20:59 | 36.78942 | -76.43395 | 2260 ft | 167 kts | 218° |
| 2026-04-25 20:59 | 36.77958 | -76.44156 | 2481 ft | 167 kts | 195° |
| 2026-04-25 21:00 | 36.76793 | -76.44094 | 2535 ft | 175 kts | 159° |
| 2026-04-25 21:00 | 36.76112 | -76.43536 | 2586 ft | 179 kts | 139° |
| 2026-04-25 21:00 | 36.74543 | -76.40517 | 2946 ft | 183 kts | 125° |
| 2026-04-25 21:01 | 36.74003 | -76.39092 | 3046 ft | 189 kts | 111° |
| 2026-04-25 21:01 | 36.73806 | -76.37410 | 2999 ft | 202 kts | 92° |
| 2026-04-25 21:01 | 36.74168 | -76.35734 | 3050 ft | 200 kts | 66° |
| 2026-04-25 21:01 | 36.74937 | -76.34274 | 2926 ft | 204 kts | 53° |
| 2026-04-25 21:02 | 36.75899 | -76.32990 | 2814 ft | 199 kts | 43° |
| 2026-04-25 21:02 | 36.76942 | -76.31921 | 2598 ft | 192 kts | 43° |
| 2026-04-25 21:02 | 36.77974 | -76.30884 | 2274 ft | 189 kts | 41° |
| 2026-04-25 21:02 | 36.78960 | -76.29906 | 2011 ft | 171 kts | 42° |
| 2026-04-25 21:03 | 36.79908 | -76.29083 | 1800 ft | 160 kts | 38° |
| 2026-04-25 21:03 | 36.80807 | -76.28329 | 1652 ft | 152 kts | 40° |
| 2026-04-25 21:03 | 36.81646 | -76.27551 | 1516 ft | 148 kts | 44° |
| 2026-04-25 21:03 | 36.82467 | -76.26744 | 1417 ft | 154 kts | 44° |
| 2026-04-25 21:04 | 36.83298 | -76.25888 | 1398 ft | 156 kts | 43° |
| 2026-04-25 21:04 | 36.84162 | -76.25060 | 1253 ft | 156 kts | 41° |
| 2026-04-25 21:04 | 36.85027 | -76.24265 | 1040 ft | 152 kts | 39° |
| 2026-04-25 21:04 | 36.85839 | -76.23477 | 795 ft | 143 kts | 42° |
| 2026-04-25 21:05 | 36.86603 | -76.22737 | 603 ft | 134 kts | 40° |
| 2026-04-25 21:05 | 36.87306 | -76.22044 | 414 ft | 128 kts | 39° |
| 2026-04-25 21:05 | 36.88011 | -76.21375 | 242 ft | 129 kts | 38° |
| 2026-04-25 21:05 | 36.88729 | -76.20691 | 61 ft | 128 kts | 37° |
| 2026-04-25 21:06 | 36.89363 | -76.20083 | 13 ft | 95 kts | 37° |
| 2026-04-25 21:06 | 36.89754 | -76.19707 | 7 ft | 52 kts | 37° |
| 2026-04-25 21:06 | 36.89923 | -76.19544 | 6 ft | 18 kts | 39° |
| 2026-04-25 21:06 | 36.89993 | -76.19496 | 7 ft | 15 kts | 350° |
| 2026-04-25 21:07 | 36.90038 | -76.19646 | 6 ft | 17 kts | 219° |
| 2026-04-25 21:07 | 36.89931 | -76.19749 | 6 ft | 22 kts | 217° |
| 2026-04-25 21:07 | 36.89799 | -76.19875 | 6 ft | 26 kts | 218° |
| 2026-04-25 21:07 | 36.89704 | -76.19972 | 7 ft | 14 kts | 221° |
| 2026-04-25 21:08 | 36.89658 | -76.20029 | 7 ft | 6 kts | 235° |
| 2026-04-25 21:08 | 36.89667 | -76.20055 | 7 ft | 6 kts | 311° |
| 2026-04-25 21:08 | 36.89684 | -76.20078 | 7 ft | 0 kts | 310° |